Ulsteinvik  Ulsteinvik


Beaufortskalaen  Beaufortskalaen


Clouds and precipitation  Clouds and precipitation


Rain radar more information rain snow radar


No particular awareness of the weather is required.    There are no Weather-warnings

Nearby METAR Reports

   
ENAL - Ålesund
Updated: 04-07-2020 11:50
Clear  
Clear  
   Wind: NE 5.1 m/s
Wind: NE 5.1 m/s
Temperature: 14°C
Dew Point: 6°C
Humidity: 59%
Barometer: 1003 hPa
Visibility: More than 10 km
Cloud details: Clear
ENAL 040950Z 05010KT CAVOK 14/06 Q1003
ENOV - Ørsta
Updated: 04-07-2020 10:50
NOT Current
Clear  
Clear  
   Wind: varies 1.5 m/s
Wind: varies 1.5 m/s
Temperature: 14°C
Dew Point: 4°C
Humidity: 51%
Barometer: 1002 hPa
Visibility: More than 10 km
Cloud details: Clear
ENOV 040850Z VRB03KT CAVOK 14/04 Q1002 RMK WIND 2175FT 07006KT
ENML - Tafjorden
Updated: 04-07-2020 11:50
Few Clouds  
Few Clouds  
   Wind: East 5.7 m/s
Wind: East 5.7 m/s
Temperature: 15°C
Dew Point: 4°C
Humidity: 48%
Barometer: 1003 hPa
Clouds: Few Clouds
Visibility: More than 10 km
Cloud details: Few Clouds 304.8 m
ENML 040950Z 08011KT 9999 FEW010 15/04 Q1003
ENML - Molde
Updated: 04-07-2020 11:50
Few Clouds  
Few Clouds  
   Wind: East 5.7 m/s
Wind: East 5.7 m/s
Temperature: 15°C
Dew Point: 4°C
Humidity: 48%
Barometer: 1003 hPa
Clouds: Few Clouds
Visibility: More than 10 km
Cloud details: Few Clouds 304.8 m
ENML 040950Z 08011KT 9999 FEW010 15/04 Q1003
ENFL - Florø
Updated: 04-07-2020 11:50
Clear  
Clear  
   Wind: NW 3.1 m/s
Wind: NW 3.1 m/s
Temperature: 14°C
Dew Point: 3°C
Humidity: 48%
Barometer: 1002 hPa
Clouds: Clear
Visibility: 10 km
Cloud details: Clear
ENFL 040950Z AUTO 31006KT 260V330 9999NDV NCD 14/03 Q1002
ENVA - Trondheim
Updated: 04-07-2020 11:50
Partly Cloudy  
Partly Cloudy  
   Wind: West 5.7 m/s
Wind: West 5.7 m/s
Temperature: 13°C
Dew Point: 8°C
Humidity: 72%
Barometer: 1003 hPa
Clouds: Partly Cloudy
Visibility: More than 10 km
Cloud details: Few Clouds 701 m,
Partly Cloudy 1219.2 m
ENVA 040950Z 27011KT 9999 FEW023 SCT040 13/08 Q1003 NOSIG RMK WIND 670FT 28010KT
ENBR - Bergen
Updated: 04-07-2020 11:50
Few Clouds  
Few Clouds  
   Wind: SW 2.1 m/s
Wind: SW 2.1 m/s
Temperature: 14°C
Dew Point: 3°C
Humidity: 48%
Barometer: 1002 hPa
Clouds: Few Clouds
Visibility: More than 10 km
Cloud details: Few Clouds 1219.2 m
ENBR 040950Z 23004KT 210V290 9999 FEW040 14/03 Q1002 NOSIG RMK WIND 1200FT 10003KT
ENZV - Stavanger
Updated: 04-07-2020 11:50
Mostly Cloudy  
Mostly Cloudy  
   Wind: West 2.6 m/s
Wind: West 2.6 m/s
Temperature: 16°C
Dew Point: 10°C
Humidity: 68%
Barometer: 1002 hPa
Clouds: Mostly Cloudy
Visibility: More than 10 km
Cloud details: Partly Cloudy 670.6 m,
Mostly Cloudy 1463 m
ENZV 040950Z 28005KT 9999 SCT022 BKN048 16/10 Q1002 NOSIG
ENGM - Oslo
Updated: 04-07-2020 11:50
Few Clouds  
Few Clouds  
   Wind: NE 4.1 m/s
Wind: NE 4.1 m/s
Temperature: 14°C
Dew Point: 3°C
Humidity: 48%
Barometer: 1002 hPa
Clouds: Few Clouds
Visibility: More than 10 km
Cloud details: Few Clouds 1219.2 m
ENGM 040950Z 04008KT 360V060 9999 FEW040 14/03 Q1002 NOSIG
ESSA - Stockholm
Updated: 04-07-2020 11:50
Light Rain, Mostly Cloudy  
Light Rain, Mostly Cloudy  
   Wind: SSW 5.1 m/s
Wind: SSW 5.1 m/s
Temperature: 13°C
Dew Point: 12°C
Humidity: 94%
Barometer: 1001 hPa
Clouds: Mostly Cloudy
Visibility: More than 10 km
Cloud details: Mostly Cloudy 457.2 m
ESSA 040950Z 20010KT 9999 -RA BKN015 13/12 Q1001 TEMPO BKN009
EKCH - København
Updated: 04-07-2020 11:50
Light Drizzle, Overcast  
Light Drizzle, Overcast  
   Wind: SW 8.7 m/s
Wind: SW 8.7 m/s
Temperature: 17°C
Dew Point: 14°C
Humidity: 83%
Barometer: 1008 hPa
Clouds: Overcast
Visibility: More than 10 km
Cloud details: Overcast 457.2 m
EKCH 040950Z 23017KT 9999 -DZ OVC015 17/14 Q1008 TEMPO BKN012
ENHV - Nordkapp
Updated: 03-07-2020 21:50
NOT Current
Clear  
Clear  
   Wind: NE 5.1 m/s
Wind: NE 5.1 m/s
Temperature: 9°C
Wind Chill: 6°C
Dew Point: 5°C
Humidity: 76%
Barometer: 1006 hPa
Visibility: More than 10 km
Cloud details: Clear
ENHV 031950Z 05010KT CAVOK 09/05 Q1006
ENSB - Svalbard
Updated: 04-07-2020 11:50
Mostly Cloudy  
Mostly Cloudy  
   Wind: ESE 5.7 m/s
Wind: ESE 5.7 m/s
Temperature: 8°C
Wind Chill: 5°C
Dew Point: 3°C
Humidity: 71%
Barometer: 1008 hPa
Clouds: Mostly Cloudy
Visibility: More than 10 km
Cloud details: Few Clouds 1066.8 m,
Mostly Cloudy 1371.6 m
ENSB 040950Z 11011KT 9999 FEW035 BKN045 08/03 Q1008 RMK WIND 1400FT 14008KT
NZSP - Sørpolen
Updated: 04-07-2020 01:50
NOT Current
Blowing, Snow, Few Clouds  
Blowing, Snow, Few Clouds  
   Wind: East 4.6 m/s
Wind: East 4.6 m/s
Temperature: -61°C
Wind Chill: -81°C
Barometer: 955 hPa
Clouds: Few Clouds
Visibility: 1.6 km
Cloud details: Few Clouds
NZSP 032350Z 08009KT 1600 BLSN FEW000 M61/ A2820 RMK BLSN FEW000 CLN AIR 00000KT ALL WNDS GRID
 

Script developed by  Saratoga-weather.org Adapted for the template by  Weerstation Leuven

Equipment we use:

Weather-station
Davis VP2+ 24/H Fars, Online-Ups, 4G Backup.

Weather-program
Weather Display

Weather-server
Custom builds pcs

Provider
Hosted By Pro Isp

Davis VP2+ 24/H Fars, Online-Ups, 4G Backup.

Weather Display

Custom builds pcs

Hosted By Pro Isp